createdAt,value
2022-09-06T00:02:19.588Z,1.10
2022-09-06T00:04:46.562Z,1.45
2022-09-06T00:07:13.479Z,0.65
2022-09-06T00:09:40.471Z,0.30
2022-09-06T00:12:07.553Z,0.30
2022-09-06T00:14:34.417Z,0.50
2022-09-06T00:17:01.454Z,0.30
2022-09-06T00:19:28.282Z,0.37
2022-09-06T00:21:55.089Z,0.30
2022-09-06T00:24:21.929Z,0.40
2022-09-06T00:26:48.777Z,0.30
2022-09-06T00:29:15.665Z,0.50
2022-09-06T00:31:42.474Z,0.50
2022-09-06T00:34:09.390Z,0.57
2022-09-06T00:36:36.499Z,0.50
2022-09-06T00:39:03.643Z,0.30
2022-09-06T00:41:30.729Z,0.57
2022-09-06T00:43:57.785Z,0.50
2022-09-06T00:46:27.775Z,0.30
2022-09-06T00:48:59.142Z,0.40
2022-09-06T00:51:27.329Z,0.40
2022-09-06T00:53:54.500Z,0.63
2022-09-06T00:56:21.522Z,0.75
2022-09-06T00:58:48.880Z,0.65
2022-09-06T01:01:15.838Z,0.70
2022-09-06T01:03:43.116Z,0.30
2022-09-06T01:06:24.633Z,0.30
2022-09-06T01:09:17.233Z,0.30
2022-09-06T01:12:02.760Z,0.40
2022-09-06T01:15:06.539Z,0.25
2022-09-06T01:17:36.184Z,0.45
2022-09-06T01:20:36.543Z,0.30
2022-09-06T01:23:21.664Z,0.30
2022-09-06T01:25:48.444Z,0.37
2022-09-06T01:28:27.631Z,0.52
2022-09-06T01:31:02.977Z,0.20
2022-09-06T01:33:56.011Z,0.30
2022-09-06T01:36:27.330Z,0.43
2022-09-06T01:38:54.269Z,0.55
2022-09-06T01:41:21.188Z,0.30
2022-09-06T01:43:50.805Z,0.30
2022-09-06T01:46:43.911Z,0.60
2022-09-06T01:49:29.340Z,0.30
2022-09-06T01:52:27.020Z,0.30
2022-09-06T01:55:37.159Z,0.37
2022-09-06T01:58:16.038Z,0.50
2022-09-06T02:01:08.863Z,0.55
2022-09-06T02:03:59.150Z,0.30
2022-09-06T02:06:29.615Z,0.30
2022-09-06T02:09:12.984Z,0.30
2022-09-06T02:11:47.469Z,0.20
2022-09-06T02:14:18.388Z,0.30
2022-09-06T02:16:46.888Z,0.30
2022-09-06T02:19:39.557Z,0.60
2022-09-06T02:22:09.113Z,0.30
2022-09-06T02:24:37.389Z,0.30
2022-09-06T02:27:04.712Z,0.40
2022-09-06T02:29:31.749Z,0.20
2022-09-06T02:32:07.269Z,0.37
2022-09-06T02:34:37.834Z,0.62
2022-09-06T02:37:05.842Z,0.30
2022-09-06T02:39:32.965Z,0.40
2022-09-06T02:42:00.959Z,0.47
2022-09-06T02:44:27.898Z,0.20
2022-09-06T02:46:57.089Z,0.50
2022-09-06T02:49:24.918Z,0.50
2022-09-06T02:51:51.808Z,0.50
2022-09-06T02:54:18.697Z,0.70
2022-09-06T02:56:47.998Z,0.85
2022-09-06T02:59:18.539Z,0.32
2022-09-06T03:01:45.520Z,0.40
2022-09-06T03:04:12.540Z,0.30
2022-09-06T03:06:39.413Z,0.40
2022-09-06T03:09:06.523Z,0.30
2022-09-06T03:11:33.397Z,0.62
2022-09-06T03:14:00.300Z,0.30
2022-09-06T03:16:27.206Z,0.30
2022-09-06T03:18:54.102Z,0.30
2022-09-06T03:21:20.965Z,0.60
2022-09-06T03:23:47.924Z,0.80
2022-09-06T03:26:14.798Z,0.28
2022-09-06T03:28:42.999Z,0.47
2022-09-06T03:31:10.092Z,0.30
2022-09-06T03:33:37.236Z,0.30
2022-09-06T03:36:04.408Z,0.80
2022-09-06T03:38:31.350Z,0.20
2022-09-06T03:40:58.448Z,0.40
2022-09-06T03:43:26.321Z,0.50
2022-09-06T03:45:55.241Z,0.32
2022-09-06T03:48:23.968Z,0.30
2022-09-06T03:50:53.173Z,0.20
2022-09-06T03:53:20.484Z,0.75
2022-09-06T03:55:49.183Z,0.50
2022-09-06T03:58:17.415Z,0.40
2022-09-06T04:00:44.649Z,0.32
2022-09-06T04:03:11.730Z,0.32
2022-09-06T04:05:39.666Z,0.20
2022-09-06T04:08:06.602Z,0.45
2022-09-06T04:10:33.977Z,0.30
2022-09-06T04:13:00.968Z,0.30
2022-09-06T04:15:27.854Z,0.35
2022-09-06T04:17:54.842Z,0.20
2022-09-06T04:20:21.804Z,0.28
2022-09-06T04:22:48.686Z,0.60
2022-09-06T04:25:15.635Z,0.65
2022-09-06T04:27:42.491Z,0.52
2022-09-06T04:30:09.757Z,0.35
2022-09-06T04:32:36.908Z,0.68
2022-09-06T04:35:04.229Z,0.60
2022-09-06T04:37:31.166Z,0.30
2022-09-06T04:39:58.272Z,0.30
2022-09-06T04:42:25.185Z,0.30
2022-09-06T04:44:52.001Z,0.30
2022-09-06T04:47:19.348Z,0.30
2022-09-06T04:49:46.731Z,0.30
2022-09-06T04:52:13.619Z,0.53
2022-09-06T04:54:40.498Z,0.30
2022-09-06T04:57:07.499Z,0.57
2022-09-06T04:59:34.535Z,0.30
2022-09-06T05:02:01.492Z,0.20
2022-09-06T05:04:28.501Z,0.30
2022-09-06T05:07:06.297Z,0.40
2022-09-06T05:09:33.794Z,0.40
2022-09-06T05:12:01.250Z,0.30
2022-09-06T05:14:28.883Z,0.43
2022-09-06T05:16:56.146Z,0.20
2022-09-06T05:19:23.198Z,0.43
2022-09-06T05:21:51.619Z,0.60
2022-09-06T05:24:18.660Z,0.45
2022-09-06T05:26:45.631Z,0.30
2022-09-06T05:29:12.580Z,0.30
2022-09-06T05:31:39.619Z,0.30
2022-09-06T05:34:06.795Z,0.50
2022-09-06T05:36:33.951Z,1.05
2022-09-06T05:39:00.884Z,0.30
2022-09-06T05:41:28.095Z,0.62
2022-09-06T05:43:55.163Z,0.30
2022-09-06T05:46:22.225Z,0.30
2022-09-06T05:49:07.913Z,0.32
2022-09-06T05:51:34.779Z,0.30
2022-09-06T05:54:01.704Z,0.32
2022-09-06T05:56:28.675Z,0.40
2022-09-06T05:58:55.747Z,0.30
2022-09-06T06:01:27.693Z,0.50
2022-09-06T06:04:03.020Z,0.50
2022-09-06T06:06:32.047Z,0.30
2022-09-06T06:08:59.617Z,0.47
2022-09-06T06:11:27.572Z,0.40
2022-09-06T06:13:54.517Z,0.40
2022-09-06T06:16:22.709Z,0.53
2022-09-06T06:18:52.289Z,0.85
2022-09-06T06:21:21.425Z,0.40
2022-09-06T06:23:51.636Z,0.30
2022-09-06T06:26:18.895Z,0.40
2022-09-06T06:28:45.877Z,0.65
2022-09-06T06:31:13.153Z,0.40
2022-09-06T06:33:40.431Z,0.40
2022-09-06T06:36:13.342Z,0.30
2022-09-06T06:38:42.629Z,0.50
2022-09-06T06:41:11.633Z,0.50
2022-09-06T06:43:38.968Z,0.40
2022-09-06T06:46:08.602Z,0.50
2022-09-06T06:48:36.940Z,0.30
2022-09-06T06:51:03.988Z,0.40
2022-09-06T06:53:30.863Z,0.47
2022-09-06T06:55:57.693Z,0.77
2022-09-06T06:58:24.794Z,0.63
2022-09-06T07:00:51.715Z,0.73
2022-09-06T07:03:18.655Z,0.40
2022-09-06T07:08:36.666Z,0.52
2022-09-06T07:11:04.343Z,0.40
2022-09-06T07:13:31.492Z,0.50
2022-09-06T07:16:20.602Z,0.40
2022-09-06T07:18:51.211Z,0.47
2022-09-06T07:21:42.334Z,0.40
2022-09-06T07:24:09.773Z,0.45
2022-09-06T07:26:39.578Z,0.50
2022-09-06T07:29:07.622Z,0.50
2022-09-06T07:34:22.153Z,0.75
2022-09-06T07:36:52.581Z,0.93
2022-09-06T07:39:19.677Z,1.85
2022-09-06T07:41:48.878Z,0.70
2022-09-06T07:44:15.853Z,0.77
2022-09-06T07:46:42.988Z,0.93
2022-09-06T07:49:09.898Z,0.75
2022-09-06T07:51:36.990Z,0.50
2022-09-06T07:54:34.676Z,0.40
2022-09-06T07:56:51.842Z,0.57
2022-09-06T07:59:18.753Z,0.62
2022-09-06T08:01:47.562Z,0.50
2022-09-06T08:04:15.208Z,0.60
2022-09-06T08:09:35.221Z,0.85
2022-09-06T08:12:06.873Z,0.50
2022-09-06T08:14:35.105Z,0.70
2022-09-06T08:17:05.015Z,0.90
2022-09-06T08:19:32.032Z,0.98
2022-09-06T08:21:59.004Z,0.68
2022-09-06T08:24:25.937Z,1.45
2022-09-06T08:26:52.815Z,0.70
2022-09-06T08:29:22.722Z,1.03
2022-09-06T08:31:49.621Z,1.25
2022-09-06T08:34:16.575Z,0.90
2022-09-06T08:36:44.233Z,0.80
2022-09-06T08:39:11.644Z,0.73
2022-09-06T08:42:01.411Z,0.90
2022-09-06T08:45:12.321Z,0.80
2022-09-06T08:47:39.301Z,0.80
2022-09-06T08:50:07.545Z,0.70
2022-09-06T08:53:17.095Z,1.02
2022-09-06T08:56:03.219Z,0.70
2022-09-06T08:59:09.385Z,0.62
2022-09-06T09:02:09.269Z,0.62
2022-09-06T09:04:40.300Z,1.60
2022-09-06T09:07:16.996Z,1.10
2022-09-06T09:09:43.864Z,0.68
2022-09-06T09:12:12.292Z,1.00
2022-09-06T09:14:39.960Z,0.60
2022-09-06T09:17:22.278Z,0.80
2022-09-06T09:19:49.346Z,0.80
2022-09-06T09:22:19.057Z,0.90
2022-09-06T09:24:47.616Z,0.90
2022-09-06T09:27:18.915Z,0.88
2022-09-06T09:32:46.138Z,0.70
2022-09-06T09:35:36.708Z,0.80
2022-09-06T09:38:12.252Z,0.82
2022-09-06T09:40:41.911Z,0.77
2022-09-06T09:43:15.388Z,0.80
2022-09-06T09:45:42.365Z,1.50
2022-09-06T09:48:27.253Z,0.80
2022-09-06T09:50:55.267Z,0.60
2022-09-06T09:53:23.449Z,0.70
2022-09-06T09:55:56.577Z,0.80
2022-09-06T09:58:30.835Z,0.90
2022-09-06T10:01:18.914Z,0.60
2022-09-06T10:09:23.106Z,1.15
2022-09-06T10:11:55.797Z,0.80
2022-09-06T10:14:33.851Z,1.30
2022-09-06T10:17:00.822Z,0.60
2022-09-06T10:19:41.085Z,1.10
2022-09-06T10:22:41.762Z,1.37
2022-09-06T10:25:39.164Z,0.65
2022-09-06T10:28:11.295Z,0.80
2022-09-06T10:30:51.489Z,0.90
2022-09-06T10:33:35.345Z,2.40
2022-09-06T10:36:03.562Z,0.90
2022-09-06T10:39:01.612Z,0.95
2022-09-06T10:41:55.311Z,0.90
2022-09-06T10:44:37.297Z,0.80
2022-09-06T10:47:14.751Z,0.80
2022-09-06T10:49:45.480Z,0.90
2022-09-06T10:52:17.559Z,1.02
2022-09-06T10:54:47.311Z,1.23
2022-09-06T11:00:14.735Z,0.90
2022-09-06T11:02:47.455Z,0.80
2022-09-06T11:05:40.828Z,0.70
2022-09-06T11:11:05.535Z,1.12
2022-09-06T11:13:32.527Z,1.00
2022-09-06T11:16:05.199Z,1.62
2022-09-06T11:18:50.751Z,0.80
2022-09-06T11:21:35.692Z,0.70
2022-09-06T11:24:13.136Z,1.30
2022-09-06T11:27:16.192Z,0.90
2022-09-06T11:29:46.211Z,0.90
2022-09-06T11:32:28.022Z,1.08
2022-09-06T11:34:57.010Z,0.90
2022-09-06T11:37:33.938Z,0.63
2022-09-06T11:42:51.755Z,1.02
2022-09-06T11:45:23.896Z,1.20
2022-09-06T11:47:52.435Z,1.10
2022-09-06T11:50:22.471Z,1.10
2022-09-06T11:52:55.691Z,1.02
2022-09-06T11:55:25.263Z,1.37
2022-09-06T11:57:58.410Z,0.90
2022-09-06T12:00:26.007Z,0.80
2022-09-06T12:02:53.755Z,1.45
2022-09-06T12:05:30.486Z,1.12
2022-09-06T12:08:31.004Z,1.10
2022-09-06T12:11:02.234Z,1.20
2022-09-06T12:13:40.039Z,0.73
2022-09-06T12:16:07.681Z,1.00
2022-09-06T12:18:43.891Z,1.08
2022-09-06T12:21:38.396Z,1.10
2022-09-06T12:24:08.449Z,1.60
2022-09-06T12:26:55.731Z,1.10
2022-09-06T12:29:27.151Z,1.73
2022-09-06T12:31:56.869Z,1.00
2022-09-06T12:34:30.431Z,0.80
2022-09-06T12:37:09.209Z,1.15
2022-09-06T12:39:36.234Z,0.77
2022-09-06T12:42:11.136Z,1.08
2022-09-06T12:44:41.608Z,0.88
2022-09-06T12:47:20.532Z,1.00
2022-09-06T12:49:47.670Z,1.00
2022-09-06T12:52:16.635Z,1.10
2022-09-06T12:54:48.841Z,1.20
2022-09-06T12:57:21.909Z,0.90
2022-09-06T12:59:51.027Z,1.00
2022-09-06T13:02:48.502Z,0.93
2022-09-06T13:05:15.502Z,1.20
2022-09-06T13:07:49.125Z,0.98
2022-09-06T13:10:18.472Z,0.90
2022-09-06T13:12:47.977Z,0.95
2022-09-06T13:15:33.530Z,0.80
2022-09-06T13:18:40.408Z,0.90
2022-09-06T13:21:12.079Z,1.00
2022-09-06T13:23:47.570Z,1.27
2022-09-06T13:26:15.227Z,0.88
2022-09-06T13:28:42.190Z,1.02
2022-09-06T13:31:11.893Z,0.97
2022-09-06T13:33:40.513Z,0.90
2022-09-06T13:36:13.242Z,1.00
2022-09-06T13:38:40.765Z,1.00
2022-09-06T13:41:27.858Z,1.00
2022-09-06T13:44:06.939Z,1.00
2022-09-06T13:46:36.896Z,0.95
2022-09-06T13:49:05.735Z,0.93
2022-09-06T13:51:33.484Z,1.00
2022-09-06T13:54:07.836Z,0.75
2022-09-06T13:56:35.412Z,0.90
2022-09-06T13:59:02.977Z,1.15
2022-09-06T14:01:30.062Z,0.90
2022-09-06T14:03:57.613Z,1.00
2022-09-06T14:06:24.525Z,1.23
2022-09-06T14:09:08.261Z,1.05
2022-09-06T14:11:36.149Z,1.23
2022-09-06T14:14:03.390Z,1.20
2022-09-06T14:16:30.624Z,1.60
2022-09-06T14:18:58.208Z,1.23
2022-09-06T14:21:25.169Z,0.80
2022-09-06T14:23:52.786Z,0.97
2022-09-06T14:26:21.074Z,0.88
2022-09-06T14:28:48.522Z,1.10
2022-09-06T14:31:18.237Z,0.90
2022-09-06T14:33:45.350Z,0.80
2022-09-06T14:36:20.497Z,0.80
2022-09-06T14:38:48.072Z,0.93
2022-09-06T14:41:16.193Z,0.82
2022-09-06T14:43:44.119Z,0.62
2022-09-06T14:46:13.788Z,1.00
2022-09-06T14:48:42.502Z,1.10
2022-09-06T14:51:10.468Z,1.20
2022-09-06T14:53:42.105Z,0.90
2022-09-06T14:56:10.257Z,1.10
2022-09-06T14:58:38.694Z,1.08
2022-09-06T15:01:10.907Z,0.80
2022-09-06T15:03:37.824Z,0.82
2022-09-06T15:06:05.134Z,0.73
2022-09-06T15:08:32.238Z,0.80
2022-09-06T15:10:59.143Z,1.02
2022-09-06T15:13:27.046Z,0.98
2022-09-06T15:15:57.501Z,0.90
2022-09-06T15:18:24.609Z,1.87
2022-09-06T15:20:51.562Z,0.80
2022-09-06T15:23:25.929Z,0.70
2022-09-06T15:25:54.133Z,0.50
2022-09-06T15:28:21.312Z,0.50
2022-09-06T15:37:35.331Z,0.60
2022-09-06T15:40:02.599Z,0.60
2022-09-06T15:42:29.621Z,0.40
2022-09-06T15:44:56.755Z,0.40
2022-09-06T15:47:23.719Z,0.40
2022-09-06T15:49:50.900Z,0.93
2022-09-06T15:52:17.732Z,0.40
2022-09-06T15:55:03.448Z,0.47
2022-09-06T15:57:30.421Z,0.52
2022-09-06T15:59:57.323Z,0.85
2022-09-06T16:02:24.232Z,0.70
2022-09-06T16:04:51.847Z,0.40
2022-09-06T16:07:18.823Z,0.90
2022-09-06T16:09:45.851Z,0.50
2022-09-06T16:12:12.763Z,0.50
2022-09-06T16:14:39.648Z,1.08
2022-09-06T16:17:06.732Z,0.40
2022-09-06T16:19:33.716Z,0.47
2022-09-06T16:22:01.044Z,0.30
2022-09-06T16:24:28.270Z,0.70
2022-09-06T16:26:55.192Z,0.70
2022-09-06T16:29:22.208Z,0.60
2022-09-06T16:31:49.136Z,0.50
2022-09-06T16:34:16.281Z,0.40
2022-09-06T16:36:43.553Z,0.85
2022-09-06T16:39:15.713Z,0.50
2022-09-06T16:41:45.804Z,0.45
2022-09-06T16:44:16.751Z,0.55
2022-09-06T16:46:49.431Z,0.43
2022-09-06T16:49:19.399Z,0.50
2022-09-06T16:51:48.123Z,0.45
2022-09-06T16:54:15.680Z,0.65
2022-09-06T16:56:43.275Z,0.40
2022-09-06T16:59:11.936Z,0.50
2022-09-06T17:01:41.843Z,0.40
2022-09-06T17:04:09.780Z,0.30
2022-09-06T17:06:44.064Z,0.32
2022-09-06T17:09:15.914Z,0.37
2022-09-06T17:11:42.982Z,0.40
2022-09-06T17:14:10.033Z,0.40
2022-09-06T17:16:55.982Z,0.50
2022-09-06T17:19:23.513Z,0.30
2022-09-06T17:21:50.769Z,0.43
2022-09-06T17:24:17.864Z,0.75
2022-09-06T17:26:44.725Z,0.60
2022-09-06T17:29:11.857Z,0.60
2022-09-06T17:31:38.818Z,0.70
2022-09-06T17:34:06.876Z,0.30
2022-09-06T17:36:35.077Z,0.43
2022-09-06T17:39:10.567Z,0.40
2022-09-06T17:41:39.938Z,0.40
2022-09-06T17:44:10.494Z,0.62
2022-09-06T17:46:47.717Z,0.37
2022-09-06T17:49:25.790Z,0.50
2022-09-06T17:51:52.913Z,0.77
2022-09-06T17:54:19.849Z,0.60
2022-09-06T17:56:47.311Z,0.43
2022-09-06T17:59:15.542Z,0.47
2022-09-06T18:01:44.684Z,0.40
2022-09-06T18:04:12.565Z,0.77
2022-09-06T18:06:41.258Z,1.55
2022-09-06T18:09:11.334Z,0.77
2022-09-06T18:11:39.879Z,0.40
2022-09-06T18:14:09.980Z,0.37
2022-09-06T18:16:38.598Z,0.53
2022-09-06T18:19:07.696Z,0.50
2022-09-06T18:21:37.621Z,0.50
2022-09-06T18:24:05.343Z,0.40
2022-09-06T18:26:32.255Z,0.50
2022-09-06T18:28:59.625Z,0.37
2022-09-06T18:31:27.690Z,0.45
2022-09-06T18:33:58.017Z,0.40
2022-09-06T18:36:31.221Z,0.40
2022-09-06T18:39:02.897Z,0.47
2022-09-06T18:41:48.852Z,0.80
2022-09-06T18:44:16.637Z,0.60
2022-09-06T18:46:43.871Z,0.60
2022-09-06T18:49:13.555Z,0.43
2022-09-06T18:51:40.815Z,0.50
2022-09-06T18:54:07.890Z,0.30
2022-09-06T18:56:34.902Z,0.60
2022-09-06T18:59:02.239Z,0.90
2022-09-06T19:01:30.053Z,0.70
2022-09-06T19:04:01.123Z,0.30
2022-09-06T19:06:29.497Z,0.40
2022-09-06T19:09:00.870Z,0.30
2022-09-06T19:11:28.098Z,0.52
2022-09-06T19:13:56.263Z,0.50
2022-09-06T19:16:25.223Z,0.50
2022-09-06T19:18:55.168Z,1.10
2022-09-06T19:21:24.785Z,0.50
2022-09-06T19:23:59.643Z,0.80
2022-09-06T19:26:28.244Z,0.95
2022-09-06T19:28:57.270Z,0.75
2022-09-06T19:31:26.984Z,0.60
2022-09-06T19:33:55.129Z,0.45
2022-09-06T19:36:23.811Z,0.77
2022-09-06T19:39:03.477Z,0.37
2022-09-06T19:41:34.077Z,0.35
2022-09-06T19:44:01.702Z,0.50
2022-09-06T19:46:28.766Z,0.50
2022-09-06T19:48:58.875Z,0.40
2022-09-06T19:51:26.075Z,0.45
2022-09-06T19:53:55.165Z,0.47
2022-09-06T19:56:27.631Z,0.40
2022-09-06T19:58:57.159Z,1.20
2022-09-06T20:01:25.605Z,0.70
2022-09-06T20:03:52.710Z,0.90
2022-09-06T20:06:19.722Z,0.30
2022-09-06T20:08:50.195Z,0.30
2022-09-06T20:11:17.401Z,0.40
2022-09-06T20:13:44.592Z,0.50
2022-09-06T20:16:12.906Z,0.40
2022-09-06T20:18:40.489Z,0.50
2022-09-06T20:21:13.820Z,0.40
2022-09-06T20:23:41.389Z,0.40
2022-09-06T20:26:13.456Z,0.52
2022-09-06T20:28:40.769Z,0.40
2022-09-06T20:31:13.430Z,0.52
2022-09-06T20:33:40.539Z,0.40
2022-09-06T20:36:08.923Z,0.40
2022-09-06T20:38:38.075Z,0.50
2022-09-06T20:41:07.207Z,0.40
2022-09-06T20:43:36.691Z,0.40
2022-09-06T20:46:06.011Z,0.50
2022-09-06T20:48:34.770Z,0.30
2022-09-06T20:51:04.232Z,0.40
2022-09-06T20:53:34.515Z,0.68
2022-09-06T20:56:04.126Z,0.30
2022-09-06T20:58:35.025Z,0.40
2022-09-06T21:01:06.477Z,0.40
2022-09-06T21:03:37.143Z,0.83
2022-09-06T21:06:04.627Z,0.40
2022-09-06T21:08:35.016Z,0.45
2022-09-06T21:11:04.887Z,0.40
2022-09-06T21:13:33.475Z,0.60
2022-09-06T21:16:00.680Z,0.30
2022-09-06T21:18:29.215Z,0.45
2022-09-06T21:21:00.558Z,0.40
2022-09-06T21:23:29.283Z,0.50
2022-09-06T21:26:00.814Z,0.40
2022-09-06T21:28:30.729Z,0.37
2022-09-06T21:31:12.202Z,0.30
2022-09-06T21:33:44.372Z,0.75
2022-09-06T21:36:13.780Z,0.30
2022-09-06T21:38:42.700Z,0.40
2022-09-06T21:41:11.473Z,0.45
2022-09-06T21:43:38.382Z,0.30
2022-09-06T21:46:10.945Z,0.30
2022-09-06T21:48:42.270Z,0.30
2022-09-06T21:51:10.607Z,0.62
2022-09-06T21:53:37.601Z,0.40
2022-09-06T21:56:05.167Z,0.30
2022-09-06T21:58:32.795Z,0.40
2022-09-06T22:01:01.206Z,0.37
2022-09-06T22:03:30.515Z,0.40
2022-09-06T22:05:57.707Z,0.60
2022-09-06T22:08:25.711Z,0.47
2022-09-06T22:10:52.794Z,0.50
2022-09-06T22:13:20.409Z,0.30
2022-09-06T22:15:47.414Z,0.30
2022-09-06T22:18:14.292Z,0.30
2022-09-06T22:20:41.158Z,0.70
2022-09-06T22:23:08.609Z,0.50
2022-09-06T22:25:35.497Z,0.40
2022-09-06T22:28:02.549Z,0.30
2022-09-06T22:30:30.089Z,0.37
2022-09-06T22:32:57.260Z,0.33
2022-09-06T22:35:24.199Z,0.30
2022-09-06T22:37:51.089Z,0.50
2022-09-06T22:40:17.903Z,0.30
2022-09-06T22:42:44.750Z,0.30
2022-09-06T22:45:11.672Z,0.40
2022-09-06T22:47:38.544Z,0.30
2022-09-06T22:50:06.811Z,0.40
2022-09-06T22:52:33.727Z,0.60
2022-09-06T22:55:00.620Z,0.40
2022-09-06T22:57:27.553Z,0.30
2022-09-06T22:59:54.476Z,0.68
2022-09-06T23:02:21.432Z,0.93
2022-09-06T23:04:48.579Z,0.40
2022-09-06T23:07:15.493Z,0.30
2022-09-06T23:09:42.396Z,0.40
2022-09-06T23:12:09.260Z,0.60
2022-09-06T23:14:36.104Z,0.30
2022-09-06T23:17:03.060Z,0.50
2022-09-06T23:19:30.036Z,0.50
2022-09-06T23:21:56.900Z,0.87
2022-09-06T23:24:23.720Z,0.52
2022-09-06T23:26:50.689Z,0.70
2022-09-06T23:29:17.528Z,0.37
2022-09-06T23:31:44.445Z,0.40
2022-09-06T23:34:11.435Z,0.30
2022-09-06T23:36:38.401Z,0.30
2022-09-06T23:39:07.157Z,0.30
2022-09-06T23:41:34.803Z,0.30
2022-09-06T23:44:01.981Z,0.43
2022-09-06T23:46:29.212Z,0.40
2022-09-06T23:48:56.131Z,0.30
2022-09-06T23:51:23.135Z,0.25
2022-09-06T23:53:49.959Z,0.40
2022-09-06T23:56:16.949Z,0.32
2022-09-06T23:58:43.852Z,0.47
